sensor_id;sensor_type;location;lat;lon;timestamp;pressure;altitude;pressure_sealevel;temperature
9119;BMP180;4594;50.994;7.126;2022-08-20T00:01:45;100645.00;;;27.20
9119;BMP180;4594;50.994;7.126;2022-08-20T00:04:12;100636.00;;;27.20
9119;BMP180;4594;50.994;7.126;2022-08-20T00:06:39;100644.00;;;27.20
9119;BMP180;4594;50.994;7.126;2022-08-20T00:09:05;100615.00;;;27.20
9119;BMP180;4594;50.994;7.126;2022-08-20T00:11:32;100637.00;;;27.10
9119;BMP180;4594;50.994;7.126;2022-08-20T00:14:02;100638.00;;;27.20
9119;BMP180;4594;50.994;7.126;2022-08-20T00:16:33;100628.00;;;27.10
9119;BMP180;4594;50.994;7.126;2022-08-20T00:19:01;100619.00;;;27.10
9119;BMP180;4594;50.994;7.126;2022-08-20T00:21:28;100623.00;;;27.10
9119;BMP180;4594;50.994;7.126;2022-08-20T00:23:55;100623.00;;;27.10
9119;BMP180;4594;50.994;7.126;2022-08-20T00:26:22;100627.00;;;27.00
9119;BMP180;4594;50.994;7.126;2022-08-20T00:28:49;100611.00;;;27.10
9119;BMP180;4594;50.994;7.126;2022-08-20T00:31:20;100635.00;;;27.10
9119;BMP180;4594;50.994;7.126;2022-08-20T00:33:46;100631.00;;;27.10
9119;BMP180;4594;50.994;7.126;2022-08-20T00:36:13;100609.00;;;27.10
9119;BMP180;4594;50.994;7.126;2022-08-20T00:38:44;100626.00;;;27.10
9119;BMP180;4594;50.994;7.126;2022-08-20T00:41:17;100631.00;;;27.10
9119;BMP180;4594;50.994;7.126;2022-08-20T00:43:49;100614.00;;;27.10
9119;BMP180;4594;50.994;7.126;2022-08-20T00:46:25;100636.00;;;27.10
9119;BMP180;4594;50.994;7.126;2022-08-20T00:48:55;100617.00;;;27.00
9119;BMP180;4594;50.994;7.126;2022-08-20T00:51:33;100612.00;;;27.00
9119;BMP180;4594;50.994;7.126;2022-08-20T00:54:25;100623.00;;;27.00
9119;BMP180;4594;50.994;7.126;2022-08-20T00:56:59;100634.00;;;27.00
9119;BMP180;4594;50.994;7.126;2022-08-20T00:59:30;100605.00;;;27.00
9119;BMP180;4594;50.994;7.126;2022-08-20T01:01:59;100638.00;;;27.00
9119;BMP180;4594;50.994;7.126;2022-08-20T01:04:28;100637.00;;;27.00
9119;BMP180;4594;50.994;7.126;2022-08-20T01:06:56;100626.00;;;27.00
9119;BMP180;4594;50.994;7.126;2022-08-20T01:09:22;100636.00;;;27.00
9119;BMP180;4594;50.994;7.126;2022-08-20T01:11:48;100620.00;;;27.00
9119;BMP180;4594;50.994;7.126;2022-08-20T01:14:14;100632.00;;;27.00
9119;BMP180;4594;50.994;7.126;2022-08-20T01:17:05;100627.00;;;27.00
9119;BMP180;4594;50.994;7.126;2022-08-20T01:19:40;100633.00;;;27.00
9119;BMP180;4594;50.994;7.126;2022-08-20T01:22:08;100625.00;;;27.00
9119;BMP180;4594;50.994;7.126;2022-08-20T01:25:07;100627.00;;;26.90
9119;BMP180;4594;50.994;7.126;2022-08-20T01:27:36;100627.00;;;26.90
9119;BMP180;4594;50.994;7.126;2022-08-20T01:30:05;100625.00;;;26.90
9119;BMP180;4594;50.994;7.126;2022-08-20T01:32:31;100629.00;;;26.90
9119;BMP180;4594;50.994;7.126;2022-08-20T01:34:57;100615.00;;;26.90
9119;BMP180;4594;50.994;7.126;2022-08-20T01:37:22;100634.00;;;26.90
9119;BMP180;4594;50.994;7.126;2022-08-20T01:39:48;100601.00;;;26.80
9119;BMP180;4594;50.994;7.126;2022-08-20T01:42:33;100620.00;;;26.80
9119;BMP180;4594;50.994;7.126;2022-08-20T01:45:03;100620.00;;;26.70
9119;BMP180;4594;50.994;7.126;2022-08-20T01:47:32;100597.00;;;26.70
9119;BMP180;4594;50.994;7.126;2022-08-20T01:50:04;100616.00;;;26.70
9119;BMP180;4594;50.994;7.126;2022-08-20T01:55:41;100613.00;;;26.60
9119;BMP180;4594;50.994;7.126;2022-08-20T01:58:07;100617.00;;;26.60
9119;BMP180;4594;50.994;7.126;2022-08-20T02:00:33;100632.00;;;26.60
9119;BMP180;4594;50.994;7.126;2022-08-20T02:03:00;100630.00;;;26.60
9119;BMP180;4594;50.994;7.126;2022-08-20T02:05:29;100639.00;;;26.60
9119;BMP180;4594;50.994;7.126;2022-08-20T02:07:55;100633.00;;;26.50
9119;BMP180;4594;50.994;7.126;2022-08-20T02:10:21;100650.00;;;26.50
9119;BMP180;4594;50.994;7.126;2022-08-20T02:12:48;100654.00;;;26.50
9119;BMP180;4594;50.994;7.126;2022-08-20T02:15:15;100654.00;;;26.50
9119;BMP180;4594;50.994;7.126;2022-08-20T02:17:41;100653.00;;;26.50
9119;BMP180;4594;50.994;7.126;2022-08-20T02:20:15;100642.00;;;26.40
9119;BMP180;4594;50.994;7.126;2022-08-20T02:22:53;100648.00;;;26.40
9119;BMP180;4594;50.994;7.126;2022-08-20T02:25:23;100658.00;;;26.40
9119;BMP180;4594;50.994;7.126;2022-08-20T02:27:52;100657.00;;;26.30
9119;BMP180;4594;50.994;7.126;2022-08-20T02:30:25;100655.00;;;26.30
9119;BMP180;4594;50.994;7.126;2022-08-20T02:32:52;100659.00;;;26.30
9119;BMP180;4594;50.994;7.126;2022-08-20T02:35:18;100629.00;;;26.30
9119;BMP180;4594;50.994;7.126;2022-08-20T02:37:45;100622.00;;;26.30
9119;BMP180;4594;50.994;7.126;2022-08-20T02:40:16;100644.00;;;26.20
9119;BMP180;4594;50.994;7.126;2022-08-20T02:42:43;100643.00;;;26.20
9119;BMP180;4594;50.994;7.126;2022-08-20T02:45:14;100621.00;;;26.20
9119;BMP180;4594;50.994;7.126;2022-08-20T02:47:42;100638.00;;;26.10
9119;BMP180;4594;50.994;7.126;2022-08-20T02:50:14;100640.00;;;26.10
9119;BMP180;4594;50.994;7.126;2022-08-20T02:52:41;100651.00;;;26.00
9119;BMP180;4594;50.994;7.126;2022-08-20T02:55:09;100627.00;;;26.00
9119;BMP180;4594;50.994;7.126;2022-08-20T02:57:35;100625.00;;;26.00
9119;BMP180;4594;50.994;7.126;2022-08-20T03:00:00;100650.00;;;25.90
9119;BMP180;4594;50.994;7.126;2022-08-20T03:02:27;100625.00;;;25.90
9119;BMP180;4594;50.994;7.126;2022-08-20T03:04:54;100634.00;;;25.90
9119;BMP180;4594;50.994;7.126;2022-08-20T03:07:19;100638.00;;;25.90
9119;BMP180;4594;50.994;7.126;2022-08-20T03:09:45;100630.00;;;25.90
9119;BMP180;4594;50.994;7.126;2022-08-20T03:12:11;100624.00;;;25.90
9119;BMP180;4594;50.994;7.126;2022-08-20T03:14:37;100628.00;;;25.80
9119;BMP180;4594;50.994;7.126;2022-08-20T03:17:03;100629.00;;;25.80
9119;BMP180;4594;50.994;7.126;2022-08-20T03:19:29;100636.00;;;25.80
9119;BMP180;4594;50.994;7.126;2022-08-20T03:21:55;100647.00;;;25.70
9119;BMP180;4594;50.994;7.126;2022-08-20T03:24:21;100630.00;;;25.70
9119;BMP180;4594;50.994;7.126;2022-08-20T03:26:46;100625.00;;;25.70
9119;BMP180;4594;50.994;7.126;2022-08-20T03:29:12;100640.00;;;25.70
9119;BMP180;4594;50.994;7.126;2022-08-20T03:31:39;100615.00;;;25.70
9119;BMP180;4594;50.994;7.126;2022-08-20T03:34:04;100630.00;;;25.70
9119;BMP180;4594;50.994;7.126;2022-08-20T03:36:30;100624.00;;;25.70
9119;BMP180;4594;50.994;7.126;2022-08-20T03:38:59;100628.00;;;25.70
9119;BMP180;4594;50.994;7.126;2022-08-20T03:41:25;100630.00;;;25.70
9119;BMP180;4594;50.994;7.126;2022-08-20T03:43:51;100633.00;;;25.70
9119;BMP180;4594;50.994;7.126;2022-08-20T03:46:17;100600.00;;;25.70
9119;BMP180;4594;50.994;7.126;2022-08-20T03:48:43;100611.00;;;25.70
9119;BMP180;4594;50.994;7.126;2022-08-20T03:51:09;100596.00;;;25.70
9119;BMP180;4594;50.994;7.126;2022-08-20T03:53:35;100627.00;;;25.70
9119;BMP180;4594;50.994;7.126;2022-08-20T03:56:04;100620.00;;;25.70
9119;BMP180;4594;50.994;7.126;2022-08-20T03:58:32;100616.00;;;25.70
9119;BMP180;4594;50.994;7.126;2022-08-20T04:00:59;100615.00;;;25.70
9119;BMP180;4594;50.994;7.126;2022-08-20T04:03:25;100617.00;;;25.70
9119;BMP180;4594;50.994;7.126;2022-08-20T04:05:52;100614.00;;;25.70
9119;BMP180;4594;50.994;7.126;2022-08-20T04:08:24;100621.00;;;25.70
9119;BMP180;4594;50.994;7.126;2022-08-20T04:10:55;100615.00;;;25.70
9119;BMP180;4594;50.994;7.126;2022-08-20T04:13:26;100619.00;;;25.70
9119;BMP180;4594;50.994;7.126;2022-08-20T04:15:53;100621.00;;;25.60
9119;BMP180;4594;50.994;7.126;2022-08-20T04:18:24;100603.00;;;25.60
9119;BMP180;4594;50.994;7.126;2022-08-20T04:20:52;100617.00;;;25.60
9119;BMP180;4594;50.994;7.126;2022-08-20T04:23:20;100641.00;;;25.60
9119;BMP180;4594;50.994;7.126;2022-08-20T04:25:46;100610.00;;;25.60
9119;BMP180;4594;50.994;7.126;2022-08-20T04:28:20;100643.00;;;25.60
9119;BMP180;4594;50.994;7.126;2022-08-20T04:30:54;100638.00;;;25.70
9119;BMP180;4594;50.994;7.126;2022-08-20T04:33:21;100634.00;;;25.70
9119;BMP180;4594;50.994;7.126;2022-08-20T04:35:49;100647.00;;;25.70
9119;BMP180;4594;50.994;7.126;2022-08-20T04:38:18;100645.00;;;25.70
9119;BMP180;4594;50.994;7.126;2022-08-20T04:40:44;100657.00;;;25.70
9119;BMP180;4594;50.994;7.126;2022-08-20T04:43:22;100664.00;;;25.70
9119;BMP180;4594;50.994;7.126;2022-08-20T04:45:50;100660.00;;;25.70
9119;BMP180;4594;50.994;7.126;2022-08-20T04:48:17;100653.00;;;25.70
9119;BMP180;4594;50.994;7.126;2022-08-20T04:50:44;100661.00;;;25.80
9119;BMP180;4594;50.994;7.126;2022-08-20T04:53:13;100677.00;;;25.80
9119;BMP180;4594;50.994;7.126;2022-08-20T04:55:42;100674.00;;;25.80
9119;BMP180;4594;50.994;7.126;2022-08-20T04:58:17;100671.00;;;25.80
9119;BMP180;4594;50.994;7.126;2022-08-20T05:00:48;100677.00;;;25.80
9119;BMP180;4594;50.994;7.126;2022-08-20T05:03:16;100657.00;;;25.80
9119;BMP180;4594;50.994;7.126;2022-08-20T05:05:43;100661.00;;;25.70
9119;BMP180;4594;50.994;7.126;2022-08-20T05:08:11;100690.00;;;25.60
9119;BMP180;4594;50.994;7.126;2022-08-20T05:10:39;100664.00;;;25.50
9119;BMP180;4594;50.994;7.126;2022-08-20T05:13:07;100684.00;;;25.50
9119;BMP180;4594;50.994;7.126;2022-08-20T05:15:33;100674.00;;;25.40
9119;BMP180;4594;50.994;7.126;2022-08-20T05:18:01;100695.00;;;25.40
9119;BMP180;4594;50.994;7.126;2022-08-20T05:20:31;100679.00;;;25.50
9119;BMP180;4594;50.994;7.126;2022-08-20T05:22:58;100682.00;;;25.40
9119;BMP180;4594;50.994;7.126;2022-08-20T05:25:25;100673.00;;;25.30
9119;BMP180;4594;50.994;7.126;2022-08-20T05:28:05;100701.00;;;25.30
9119;BMP180;4594;50.994;7.126;2022-08-20T05:30:37;100707.00;;;25.20
9119;BMP180;4594;50.994;7.126;2022-08-20T05:33:09;100694.00;;;25.20
9119;BMP180;4594;50.994;7.126;2022-08-20T05:35:37;100695.00;;;25.20
9119;BMP180;4594;50.994;7.126;2022-08-20T05:38:10;100684.00;;;25.10
9119;BMP180;4594;50.994;7.126;2022-08-20T05:40:39;100694.00;;;25.10
9119;BMP180;4594;50.994;7.126;2022-08-20T05:43:06;100680.00;;;25.00
9119;BMP180;4594;50.994;7.126;2022-08-20T05:45:34;100694.00;;;25.00
9119;BMP180;4594;50.994;7.126;2022-08-20T05:48:24;100695.00;;;24.90
9119;BMP180;4594;50.994;7.126;2022-08-20T05:50:52;100700.00;;;24.90
9119;BMP180;4594;50.994;7.126;2022-08-20T05:53:20;100689.00;;;24.90
9119;BMP180;4594;50.994;7.126;2022-08-20T05:55:46;100699.00;;;24.90
9119;BMP180;4594;50.994;7.126;2022-08-20T05:58:26;100690.00;;;24.90
9119;BMP180;4594;50.994;7.126;2022-08-20T06:00:53;100685.00;;;24.90
9119;BMP180;4594;50.994;7.126;2022-08-20T06:03:20;100693.00;;;24.90
9119;BMP180;4594;50.994;7.126;2022-08-20T06:06:04;100686.00;;;24.90
9119;BMP180;4594;50.994;7.126;2022-08-20T06:08:31;100710.00;;;24.90
9119;BMP180;4594;50.994;7.126;2022-08-20T06:10:57;100703.00;;;24.90
9119;BMP180;4594;50.994;7.126;2022-08-20T06:13:23;100699.00;;;24.90
9119;BMP180;4594;50.994;7.126;2022-08-20T06:15:49;100701.00;;;24.90
9119;BMP180;4594;50.994;7.126;2022-08-20T06:18:15;100714.00;;;24.90
9119;BMP180;4594;50.994;7.126;2022-08-20T06:20:41;100697.00;;;24.90
9119;BMP180;4594;50.994;7.126;2022-08-20T06:23:07;100698.00;;;24.90
9119;BMP180;4594;50.994;7.126;2022-08-20T06:25:34;100705.00;;;24.90
9119;BMP180;4594;50.994;7.126;2022-08-20T06:28:02;100710.00;;;24.90
9119;BMP180;4594;50.994;7.126;2022-08-20T06:30:28;100709.00;;;24.90
9119;BMP180;4594;50.994;7.126;2022-08-20T06:32:54;100715.00;;;25.00
9119;BMP180;4594;50.994;7.126;2022-08-20T06:35:20;100716.00;;;25.00
9119;BMP180;4594;50.994;7.126;2022-08-20T06:37:45;100711.00;;;25.00
9119;BMP180;4594;50.994;7.126;2022-08-20T06:40:19;100710.00;;;25.00
9119;BMP180;4594;50.994;7.126;2022-08-20T06:42:45;100721.00;;;25.00
9119;BMP180;4594;50.994;7.126;2022-08-20T06:45:13;100718.00;;;25.10
9119;BMP180;4594;50.994;7.126;2022-08-20T06:47:45;100717.00;;;25.10
9119;BMP180;4594;50.994;7.126;2022-08-20T06:50:16;100726.00;;;25.10
9119;BMP180;4594;50.994;7.126;2022-08-20T06:52:43;100721.00;;;25.10
9119;BMP180;4594;50.994;7.126;2022-08-20T06:55:10;100721.00;;;25.20
9119;BMP180;4594;50.994;7.126;2022-08-20T06:57:38;100728.00;;;25.20
9119;BMP180;4594;50.994;7.126;2022-08-20T07:00:14;100720.00;;;25.20
9119;BMP180;4594;50.994;7.126;2022-08-20T07:02:41;100731.00;;;25.20
9119;BMP180;4594;50.994;7.126;2022-08-20T07:05:08;100735.00;;;25.30
9119;BMP180;4594;50.994;7.126;2022-08-20T07:07:35;100731.00;;;25.30
9119;BMP180;4594;50.994;7.126;2022-08-20T07:10:08;100727.00;;;25.30
9119;BMP180;4594;50.994;7.126;2022-08-20T07:12:34;100735.00;;;25.30
9119;BMP180;4594;50.994;7.126;2022-08-20T07:15:04;100729.00;;;25.20
9119;BMP180;4594;50.994;7.126;2022-08-20T07:17:30;100735.00;;;25.20
9119;BMP180;4594;50.994;7.126;2022-08-20T07:19:56;100731.00;;;25.30
9119;BMP180;4594;50.994;7.126;2022-08-20T07:22:22;100740.00;;;25.30
9119;BMP180;4594;50.994;7.126;2022-08-20T07:24:50;100741.00;;;25.30
9119;BMP180;4594;50.994;7.126;2022-08-20T07:27:21;100737.00;;;25.30
9119;BMP180;4594;50.994;7.126;2022-08-20T07:29:48;100738.00;;;25.30
9119;BMP180;4594;50.994;7.126;2022-08-20T07:32:34;100742.00;;;25.30
9119;BMP180;4594;50.994;7.126;2022-08-20T07:35:09;100750.00;;;25.30
9119;BMP180;4594;50.994;7.126;2022-08-20T07:37:44;100754.00;;;25.40
9119;BMP180;4594;50.994;7.126;2022-08-20T07:40:20;100757.00;;;25.40
9119;BMP180;4594;50.994;7.126;2022-08-20T07:42:46;100752.00;;;25.50
9119;BMP180;4594;50.994;7.126;2022-08-20T07:45:15;100758.00;;;25.50
9119;BMP180;4594;50.994;7.126;2022-08-20T07:47:45;100756.00;;;25.60
9119;BMP180;4594;50.994;7.126;2022-08-20T07:50:15;100759.00;;;25.60
9119;BMP180;4594;50.994;7.126;2022-08-20T07:52:41;100760.00;;;25.70
9119;BMP180;4594;50.994;7.126;2022-08-20T07:55:11;100767.00;;;25.70
9119;BMP180;4594;50.994;7.126;2022-08-20T07:57:37;100769.00;;;25.70
9119;BMP180;4594;50.994;7.126;2022-08-20T08:00:06;100767.00;;;25.80
9119;BMP180;4594;50.994;7.126;2022-08-20T08:02:34;100768.00;;;25.80
9119;BMP180;4594;50.994;7.126;2022-08-20T08:05:02;100775.00;;;25.80
9119;BMP180;4594;50.994;7.126;2022-08-20T08:07:27;100770.00;;;25.80
9119;BMP180;4594;50.994;7.126;2022-08-20T08:09:55;100770.00;;;25.90
9119;BMP180;4594;50.994;7.126;2022-08-20T08:12:22;100769.00;;;25.90
9119;BMP180;4594;50.994;7.126;2022-08-20T08:14:50;100778.00;;;26.00
9119;BMP180;4594;50.994;7.126;2022-08-20T08:17:17;100782.00;;;26.10
9119;BMP180;4594;50.994;7.126;2022-08-20T08:19:47;100779.00;;;26.20
9119;BMP180;4594;50.994;7.126;2022-08-20T08:22:17;100773.00;;;26.40
9119;BMP180;4594;50.994;7.126;2022-08-20T08:24:44;100777.00;;;26.60
9119;BMP180;4594;50.994;7.126;2022-08-20T08:27:12;100776.00;;;26.80
9119;BMP180;4594;50.994;7.126;2022-08-20T08:29:39;100778.00;;;27.00
9119;BMP180;4594;50.994;7.126;2022-08-20T08:32:06;100778.00;;;27.10
9119;BMP180;4594;50.994;7.126;2022-08-20T08:34:35;100786.00;;;27.30
9119;BMP180;4594;50.994;7.126;2022-08-20T08:37:02;100785.00;;;27.40
9119;BMP180;4594;50.994;7.126;2022-08-20T08:39:29;100788.00;;;27.50
9119;BMP180;4594;50.994;7.126;2022-08-20T08:41:56;100788.00;;;27.60
9119;BMP180;4594;50.994;7.126;2022-08-20T08:44:37;100792.00;;;27.80
9119;BMP180;4594;50.994;7.126;2022-08-20T08:47:24;100794.00;;;27.90
9119;BMP180;4594;50.994;7.126;2022-08-20T08:49:50;100795.00;;;27.80
9119;BMP180;4594;50.994;7.126;2022-08-20T08:52:23;100797.00;;;27.80
9119;BMP180;4594;50.994;7.126;2022-08-20T08:54:57;100804.00;;;27.70
9119;BMP180;4594;50.994;7.126;2022-08-20T08:57:24;100811.00;;;27.70
9119;BMP180;4594;50.994;7.126;2022-08-20T09:00:01;100813.00;;;27.60
9119;BMP180;4594;50.994;7.126;2022-08-20T09:02:29;100810.00;;;27.60
9119;BMP180;4594;50.994;7.126;2022-08-20T09:04:59;100816.00;;;27.60
9119;BMP180;4594;50.994;7.126;2022-08-20T09:07:30;100822.00;;;27.60
9119;BMP180;4594;50.994;7.126;2022-08-20T09:09:57;100819.00;;;27.50
9119;BMP180;4594;50.994;7.126;2022-08-20T09:12:24;100822.00;;;27.50
9119;BMP180;4594;50.994;7.126;2022-08-20T09:14:53;100815.00;;;27.50
9119;BMP180;4594;50.994;7.126;2022-08-20T09:17:22;100830.00;;;27.50
9119;BMP180;4594;50.994;7.126;2022-08-20T09:19:48;100832.00;;;27.50
9119;BMP180;4594;50.994;7.126;2022-08-20T09:22:19;100832.00;;;27.40
9119;BMP180;4594;50.994;7.126;2022-08-20T09:24:46;100834.00;;;27.40
9119;BMP180;4594;50.994;7.126;2022-08-20T09:27:12;100831.00;;;27.40
9119;BMP180;4594;50.994;7.126;2022-08-20T09:29:38;100834.00;;;27.30
9119;BMP180;4594;50.994;7.126;2022-08-20T09:34:43;100828.00;;;27.30
9119;BMP180;4594;50.994;7.126;2022-08-20T09:37:09;100825.00;;;27.30
9119;BMP180;4594;50.994;7.126;2022-08-20T09:39:35;100833.00;;;27.30
9119;BMP180;4594;50.994;7.126;2022-08-20T09:42:18;100834.00;;;27.20
9119;BMP180;4594;50.994;7.126;2022-08-20T09:44:45;100833.00;;;27.20
9119;BMP180;4594;50.994;7.126;2022-08-20T09:47:12;100833.00;;;27.10
9119;BMP180;4594;50.994;7.126;2022-08-20T09:49:38;100846.00;;;27.10
9119;BMP180;4594;50.994;7.126;2022-08-20T09:52:09;100845.00;;;27.10
9119;BMP180;4594;50.994;7.126;2022-08-20T09:54:36;100847.00;;;27.10
9119;BMP180;4594;50.994;7.126;2022-08-20T09:57:06;100848.00;;;27.10
9119;BMP180;4594;50.994;7.126;2022-08-20T09:59:35;100844.00;;;27.20
9119;BMP180;4594;50.994;7.126;2022-08-20T10:02:02;100843.00;;;27.20
9119;BMP180;4594;50.994;7.126;2022-08-20T10:04:28;100839.00;;;27.20
9119;BMP180;4594;50.994;7.126;2022-08-20T10:06:54;100848.00;;;27.20
9119;BMP180;4594;50.994;7.126;2022-08-20T10:09:20;100851.00;;;27.20
9119;BMP180;4594;50.994;7.126;2022-08-20T10:11:46;100850.00;;;27.20
9119;BMP180;4594;50.994;7.126;2022-08-20T10:14:11;100849.00;;;27.20
9119;BMP180;4594;50.994;7.126;2022-08-20T10:16:37;100852.00;;;27.20
9119;BMP180;4594;50.994;7.126;2022-08-20T10:19:04;100850.00;;;27.20
9119;BMP180;4594;50.994;7.126;2022-08-20T10:21:31;100851.00;;;27.30
9119;BMP180;4594;50.994;7.126;2022-08-20T10:23:57;100860.00;;;27.30
9119;BMP180;4594;50.994;7.126;2022-08-20T10:26:23;100860.00;;;27.30
9119;BMP180;4594;50.994;7.126;2022-08-20T10:28:49;100861.00;;;27.30
9119;BMP180;4594;50.994;7.126;2022-08-20T10:31:15;100861.00;;;27.20
9119;BMP180;4594;50.994;7.126;2022-08-20T10:33:41;100859.00;;;27.20
9119;BMP180;4594;50.994;7.126;2022-08-20T10:36:09;100854.00;;;27.20
9119;BMP180;4594;50.994;7.126;2022-08-20T10:38:35;100857.00;;;27.20
9119;BMP180;4594;50.994;7.126;2022-08-20T10:41:01;100864.00;;;27.20
9119;BMP180;4594;50.994;7.126;2022-08-20T10:43:27;100865.00;;;27.20
9119;BMP180;4594;50.994;7.126;2022-08-20T10:45:52;100866.00;;;27.30
9119;BMP180;4594;50.994;7.126;2022-08-20T10:48:19;100857.00;;;27.40
9119;BMP180;4594;50.994;7.126;2022-08-20T10:50:44;100857.00;;;27.40
9119;BMP180;4594;50.994;7.126;2022-08-20T10:53:10;100857.00;;;27.50
9119;BMP180;4594;50.994;7.126;2022-08-20T10:55:37;100856.00;;;27.60
9119;BMP180;4594;50.994;7.126;2022-08-20T10:58:07;100860.00;;;27.80
9119;BMP180;4594;50.994;7.126;2022-08-20T11:00:34;100855.00;;;28.00
9119;BMP180;4594;50.994;7.126;2022-08-20T11:03:01;100853.00;;;28.20
9119;BMP180;4594;50.994;7.126;2022-08-20T11:05:27;100855.00;;;28.40
9119;BMP180;4594;50.994;7.126;2022-08-20T11:07:53;100864.00;;;28.60
9119;BMP180;4594;50.994;7.126;2022-08-20T11:10:27;100856.00;;;28.80
9119;BMP180;4594;50.994;7.126;2022-08-20T11:12:54;100843.00;;;29.00
9119;BMP180;4594;50.994;7.126;2022-08-20T11:15:19;100826.00;;;29.60
9119;BMP180;4594;50.994;7.126;2022-08-20T11:17:45;100837.00;;;30.50
9119;BMP180;4594;50.994;7.126;2022-08-20T11:20:16;100830.00;;;31.50
9119;BMP180;4594;50.994;7.126;2022-08-20T11:22:42;100851.00;;;32.20
9119;BMP180;4594;50.994;7.126;2022-08-20T11:25:08;100850.00;;;32.50
9119;BMP180;4594;50.994;7.126;2022-08-20T11:27:40;100853.00;;;32.40
9119;BMP180;4594;50.994;7.126;2022-08-20T11:30:11;100845.00;;;32.20
9119;BMP180;4594;50.994;7.126;2022-08-20T11:32:37;100857.00;;;32.00
9119;BMP180;4594;50.994;7.126;2022-08-20T11:35:04;100857.00;;;31.70
9119;BMP180;4594;50.994;7.126;2022-08-20T11:37:31;100844.00;;;31.80
9119;BMP180;4594;50.994;7.126;2022-08-20T11:39:57;100859.00;;;32.20
9119;BMP180;4594;50.994;7.126;2022-08-20T11:42:23;100850.00;;;32.20
9119;BMP180;4594;50.994;7.126;2022-08-20T11:44:49;100838.00;;;32.10
9119;BMP180;4594;50.994;7.126;2022-08-20T11:47:24;100850.00;;;31.90
9119;BMP180;4594;50.994;7.126;2022-08-20T11:50:05;100848.00;;;31.80
9119;BMP180;4594;50.994;7.126;2022-08-20T11:52:32;100845.00;;;31.70
9119;BMP180;4594;50.994;7.126;2022-08-20T11:54:58;100848.00;;;31.60
9119;BMP180;4594;50.994;7.126;2022-08-20T11:57:31;100848.00;;;31.60
9119;BMP180;4594;50.994;7.126;2022-08-20T11:59:59;100854.00;;;31.60
9119;BMP180;4594;50.994;7.126;2022-08-20T12:02:26;100856.00;;;31.50
9119;BMP180;4594;50.994;7.126;2022-08-20T12:04:52;100860.00;;;31.50
9119;BMP180;4594;50.994;7.126;2022-08-20T12:07:23;100860.00;;;31.40
9119;BMP180;4594;50.994;7.126;2022-08-20T12:09:50;100857.00;;;31.40
9119;BMP180;4594;50.994;7.126;2022-08-20T12:12:19;100861.00;;;31.40
9119;BMP180;4594;50.994;7.126;2022-08-20T12:14:45;100856.00;;;31.30
9119;BMP180;4594;50.994;7.126;2022-08-20T12:17:18;100860.00;;;31.30
9119;BMP180;4594;50.994;7.126;2022-08-20T12:19:48;100852.00;;;31.30
9119;BMP180;4594;50.994;7.126;2022-08-20T12:22:15;100854.00;;;31.30
9119;BMP180;4594;50.994;7.126;2022-08-20T12:24:41;100845.00;;;31.30
9119;BMP180;4594;50.994;7.126;2022-08-20T12:27:16;100844.00;;;31.20
9119;BMP180;4594;50.994;7.126;2022-08-20T12:29:46;100843.00;;;31.20
9119;BMP180;4594;50.994;7.126;2022-08-20T12:32:13;100843.00;;;31.30
9119;BMP180;4594;50.994;7.126;2022-08-20T12:34:41;100832.00;;;31.40
9119;BMP180;4594;50.994;7.126;2022-08-20T12:37:17;100837.00;;;31.50
9119;BMP180;4594;50.994;7.126;2022-08-20T12:39:47;100832.00;;;31.50
9119;BMP180;4594;50.994;7.126;2022-08-20T12:42:14;100839.00;;;31.60
9119;BMP180;4594;50.994;7.126;2022-08-20T12:44:41;100839.00;;;31.60
9119;BMP180;4594;50.994;7.126;2022-08-20T12:47:17;100836.00;;;31.50
9119;BMP180;4594;50.994;7.126;2022-08-20T12:49:47;100832.00;;;31.60
9119;BMP180;4594;50.994;7.126;2022-08-20T12:52:15;100838.00;;;31.60
9119;BMP180;4594;50.994;7.126;2022-08-20T12:54:41;100832.00;;;31.60
9119;BMP180;4594;50.994;7.126;2022-08-20T12:57:26;100844.00;;;31.60
9119;BMP180;4594;50.994;7.126;2022-08-20T12:59:55;100829.00;;;31.50
9119;BMP180;4594;50.994;7.126;2022-08-20T13:02:21;100836.00;;;31.40
9119;BMP180;4594;50.994;7.126;2022-08-20T13:04:46;100833.00;;;31.30
9119;BMP180;4594;50.994;7.126;2022-08-20T13:07:13;100828.00;;;31.30
9119;BMP180;4594;50.994;7.126;2022-08-20T13:09:40;100822.00;;;31.20
9119;BMP180;4594;50.994;7.126;2022-08-20T13:12:08;100819.00;;;31.10
9119;BMP180;4594;50.994;7.126;2022-08-20T13:14:34;100825.00;;;31.00
9119;BMP180;4594;50.994;7.126;2022-08-20T13:17:01;100824.00;;;31.00
9119;BMP180;4594;50.994;7.126;2022-08-20T13:19:29;100809.00;;;30.90
9119;BMP180;4594;50.994;7.126;2022-08-20T13:21:55;100810.00;;;30.80
9119;BMP180;4594;50.994;7.126;2022-08-20T13:24:21;100816.00;;;30.80
9119;BMP180;4594;50.994;7.126;2022-08-20T13:26:48;100802.00;;;30.70
9119;BMP180;4594;50.994;7.126;2022-08-20T13:29:15;100806.00;;;30.70
9119;BMP180;4594;50.994;7.126;2022-08-20T13:31:41;100805.00;;;30.70
9119;BMP180;4594;50.994;7.126;2022-08-20T13:34:07;100806.00;;;30.70
9119;BMP180;4594;50.994;7.126;2022-08-20T13:36:33;100809.00;;;30.70
9119;BMP180;4594;50.994;7.126;2022-08-20T13:39:00;100800.00;;;30.70
9119;BMP180;4594;50.994;7.126;2022-08-20T13:41:26;100814.00;;;30.70
9119;BMP180;4594;50.994;7.126;2022-08-20T13:43:52;100810.00;;;30.60
9119;BMP180;4594;50.994;7.126;2022-08-20T13:46:17;100803.00;;;30.60
9119;BMP180;4594;50.994;7.126;2022-08-20T13:48:43;100812.00;;;30.60
9119;BMP180;4594;50.994;7.126;2022-08-20T13:51:09;100813.00;;;30.50
9119;BMP180;4594;50.994;7.126;2022-08-20T13:53:34;100810.00;;;30.40
9119;BMP180;4594;50.994;7.126;2022-08-20T13:56:00;100810.00;;;30.40
9119;BMP180;4594;50.994;7.126;2022-08-20T13:58:26;100799.00;;;30.30
9119;BMP180;4594;50.994;7.126;2022-08-20T14:00:52;100807.00;;;30.20
9119;BMP180;4594;50.994;7.126;2022-08-20T14:03:17;100810.00;;;30.20
9119;BMP180;4594;50.994;7.126;2022-08-20T14:05:43;100813.00;;;30.10
9119;BMP180;4594;50.994;7.126;2022-08-20T14:08:17;100807.00;;;30.10
9119;BMP180;4594;50.994;7.126;2022-08-20T14:10:44;100807.00;;;30.00
9119;BMP180;4594;50.994;7.126;2022-08-20T14:13:11;100810.00;;;30.00
9119;BMP180;4594;50.994;7.126;2022-08-20T14:15:37;100808.00;;;29.90
9119;BMP180;4594;50.994;7.126;2022-08-20T14:18:03;100801.00;;;29.90
9119;BMP180;4594;50.994;7.126;2022-08-20T14:20:31;100809.00;;;29.80
9119;BMP180;4594;50.994;7.126;2022-08-20T14:22:58;100805.00;;;29.80
9119;BMP180;4594;50.994;7.126;2022-08-20T14:25:25;100798.00;;;29.80
9119;BMP180;4594;50.994;7.126;2022-08-20T14:27:52;100792.00;;;29.80
9119;BMP180;4594;50.994;7.126;2022-08-20T14:30:23;100801.00;;;29.80
9119;BMP180;4594;50.994;7.126;2022-08-20T14:32:49;100794.00;;;29.80
9119;BMP180;4594;50.994;7.126;2022-08-20T14:35:15;100797.00;;;29.80